sensor_id;sensor_type;location;lat;lon;timestamp;P1;durP1;ratioP1;P2;durP2;ratioP2
48040;SDS011;33815;48.386;11.738;2023-07-31T00:02:16;3.67;;;2.00;;
48040;SDS011;33815;48.386;11.738;2023-07-31T00:04:41;4.40;;;1.50;;
48040;SDS011;33815;48.386;11.738;2023-07-31T00:07:06;3.90;;;1.30;;
48040;SDS011;33815;48.386;11.738;2023-07-31T00:09:32;4.38;;;1.52;;
48040;SDS011;33815;48.386;11.738;2023-07-31T00:11:58;3.85;;;1.70;;
48040;SDS011;33815;48.386;11.738;2023-07-31T00:14:23;4.72;;;1.50;;
48040;SDS011;33815;48.386;11.738;2023-07-31T00:16:48;3.65;;;1.45;;
48040;SDS011;33815;48.386;11.738;2023-07-31T00:19:14;6.43;;;2.03;;
48040;SDS011;33815;48.386;11.738;2023-07-31T00:21:39;2.53;;;1.57;;
48040;SDS011;33815;48.386;11.738;2023-07-31T00:24:04;6.33;;;1.90;;
48040;SDS011;33815;48.386;11.738;2023-07-31T00:26:29;4.53;;;1.98;;
48040;SDS011;33815;48.386;11.738;2023-07-31T00:28:55;3.83;;;1.83;;
48040;SDS011;33815;48.386;11.738;2023-07-31T00:31:20;4.37;;;2.07;;
48040;SDS011;33815;48.386;11.738;2023-07-31T00:33:45;2.63;;;1.60;;
48040;SDS011;33815;48.386;11.738;2023-07-31T00:36:10;5.30;;;2.17;;
48040;SDS011;33815;48.386;11.738;2023-07-31T00:38:36;2.37;;;1.97;;
48040;SDS011;33815;48.386;11.738;2023-07-31T00:41:01;6.07;;;2.43;;
48040;SDS011;33815;48.386;11.738;2023-07-31T00:43:26;2.80;;;2.50;;
48040;SDS011;33815;48.386;11.738;2023-07-31T00:45:52;3.70;;;1.58;;
48040;SDS011;33815;48.386;11.738;2023-07-31T00:48:17;2.95;;;2.05;;
48040;SDS011;33815;48.386;11.738;2023-07-31T00:50:42;5.13;;;1.73;;
48040;SDS011;33815;48.386;11.738;2023-07-31T00:53:08;3.10;;;2.15;;
48040;SDS011;33815;48.386;11.738;2023-07-31T00:55:33;3.08;;;1.65;;
48040;SDS011;33815;48.386;11.738;2023-07-31T00:57:58;7.00;;;2.30;;
48040;SDS011;33815;48.386;11.738;2023-07-31T01:00:24;3.45;;;2.00;;
48040;SDS011;33815;48.386;11.738;2023-07-31T01:02:49;3.58;;;1.77;;
48040;SDS011;33815;48.386;11.738;2023-07-31T01:05:16;4.30;;;1.90;;
48040;SDS011;33815;48.386;11.738;2023-07-31T01:07:52;2.90;;;1.70;;
48040;SDS011;33815;48.386;11.738;2023-07-31T01:10:30;3.53;;;1.85;;
48040;SDS011;33815;48.386;11.738;2023-07-31T01:13:02;5.32;;;2.33;;
48040;SDS011;33815;48.386;11.738;2023-07-31T01:15:28;2.95;;;2.15;;
48040;SDS011;33815;48.386;11.738;2023-07-31T01:17:53;6.32;;;1.77;;
48040;SDS011;33815;48.386;11.738;2023-07-31T01:20:22;4.23;;;1.70;;
48040;SDS011;33815;48.386;11.738;2023-07-31T01:28:20;6.60;;;2.50;;
48040;SDS011;33815;48.386;11.738;2023-07-31T01:30:50;2.38;;;1.80;;
48040;SDS011;33815;48.386;11.738;2023-07-31T01:33:16;4.53;;;2.00;;
48040;SDS011;33815;48.386;11.738;2023-07-31T01:35:43;5.53;;;1.55;;
48040;SDS011;33815;48.386;11.738;2023-07-31T01:38:09;1.80;;;1.65;;
48040;SDS011;33815;48.386;11.738;2023-07-31T01:40:35;3.00;;;2.70;;
48040;SDS011;33815;48.386;11.738;2023-07-31T01:43:00;6.55;;;2.30;;
48040;SDS011;33815;48.386;11.738;2023-07-31T01:45:26;4.30;;;2.22;;
48040;SDS011;33815;48.386;11.738;2023-07-31T01:47:51;4.85;;;2.03;;
48040;SDS011;33815;48.386;11.738;2023-07-31T01:50:17;4.78;;;1.95;;
48040;SDS011;33815;48.386;11.738;2023-07-31T01:52:42;4.13;;;2.07;;
48040;SDS011;33815;48.386;11.738;2023-07-31T01:55:07;4.67;;;1.93;;
48040;SDS011;33815;48.386;11.738;2023-07-31T01:57:32;4.60;;;2.08;;
48040;SDS011;33815;48.386;11.738;2023-07-31T01:59:58;3.28;;;1.92;;
48040;SDS011;33815;48.386;11.738;2023-07-31T02:02:23;3.65;;;2.17;;
48040;SDS011;33815;48.386;11.738;2023-07-31T02:04:49;4.38;;;1.90;;
48040;SDS011;33815;48.386;11.738;2023-07-31T02:07:14;6.40;;;1.60;;
48040;SDS011;33815;48.386;11.738;2023-07-31T02:09:40;3.53;;;2.00;;
48040;SDS011;33815;48.386;11.738;2023-07-31T02:12:05;2.58;;;1.98;;
48040;SDS011;33815;48.386;11.738;2023-07-31T02:14:31;3.17;;;1.98;;
48040;SDS011;33815;48.386;11.738;2023-07-31T02:16:56;1.77;;;1.67;;
48040;SDS011;33815;48.386;11.738;2023-07-31T02:19:21;2.80;;;1.95;;
48040;SDS011;33815;48.386;11.738;2023-07-31T02:21:46;2.13;;;1.90;;
48040;SDS011;33815;48.386;11.738;2023-07-31T02:24:12;7.23;;;2.50;;
48040;SDS011;33815;48.386;11.738;2023-07-31T02:26:37;5.33;;;1.83;;
48040;SDS011;33815;48.386;11.738;2023-07-31T02:29:02;5.25;;;2.25;;
48040;SDS011;33815;48.386;11.738;2023-07-31T02:31:28;5.80;;;2.03;;
48040;SDS011;33815;48.386;11.738;2023-07-31T02:33:53;3.22;;;2.03;;
48040;SDS011;33815;48.386;11.738;2023-07-31T02:36:18;4.25;;;1.90;;
48040;SDS011;33815;48.386;11.738;2023-07-31T02:38:44;3.60;;;3.30;;
48040;SDS011;33815;48.386;11.738;2023-07-31T02:41:09;7.70;;;2.10;;
48040;SDS011;33815;48.386;11.738;2023-07-31T02:43:34;3.63;;;1.90;;
48040;SDS011;33815;48.386;11.738;2023-07-31T02:45:59;3.40;;;2.17;;
48040;SDS011;33815;48.386;11.738;2023-07-31T02:48:25;5.73;;;1.90;;
48040;SDS011;33815;48.386;11.738;2023-07-31T02:50:50;8.17;;;1.77;;
48040;SDS011;33815;48.386;11.738;2023-07-31T02:53:15;3.67;;;2.10;;
48040;SDS011;33815;48.386;11.738;2023-07-31T02:55:41;4.50;;;2.20;;
48040;SDS011;33815;48.386;11.738;2023-07-31T02:58:06;9.65;;;2.55;;
48040;SDS011;33815;48.386;11.738;2023-07-31T03:00:31;3.70;;;1.90;;
48040;SDS011;33815;48.386;11.738;2023-07-31T03:02:56;2.55;;;2.00;;
48040;SDS011;33815;48.386;11.738;2023-07-31T03:05:22;4.15;;;1.80;;
48040;SDS011;33815;48.386;11.738;2023-07-31T03:07:47;2.33;;;1.93;;
48040;SDS011;33815;48.386;11.738;2023-07-31T03:10:12;7.28;;;2.78;;
48040;SDS011;33815;48.386;11.738;2023-07-31T03:12:38;2.63;;;2.30;;
48040;SDS011;33815;48.386;11.738;2023-07-31T03:15:03;3.30;;;2.20;;
48040;SDS011;33815;48.386;11.738;2023-07-31T03:17:28;5.25;;;2.22;;
48040;SDS011;33815;48.386;11.738;2023-07-31T03:19:54;4.33;;;2.53;;
48040;SDS011;33815;48.386;11.738;2023-07-31T03:22:19;3.87;;;2.10;;
48040;SDS011;33815;48.386;11.738;2023-07-31T03:24:44;3.43;;;2.40;;
48040;SDS011;33815;48.386;11.738;2023-07-31T03:27:09;2.87;;;2.00;;
48040;SDS011;33815;48.386;11.738;2023-07-31T03:29:35;5.93;;;3.53;;
48040;SDS011;33815;48.386;11.738;2023-07-31T03:32:00;4.07;;;2.85;;
48040;SDS011;33815;48.386;11.738;2023-07-31T03:34:25;2.75;;;2.03;;
48040;SDS011;33815;48.386;11.738;2023-07-31T03:36:51;4.78;;;2.35;;
48040;SDS011;33815;48.386;11.738;2023-07-31T03:39:16;5.40;;;2.28;;
48040;SDS011;33815;48.386;11.738;2023-07-31T03:41:41;3.43;;;2.50;;
48040;SDS011;33815;48.386;11.738;2023-07-31T03:44:07;3.67;;;2.20;;
48040;SDS011;33815;48.386;11.738;2023-07-31T03:46:32;6.07;;;2.45;;
48040;SDS011;33815;48.386;11.738;2023-07-31T03:48:58;4.20;;;2.40;;
48040;SDS011;33815;48.386;11.738;2023-07-31T03:51:24;4.25;;;2.25;;
48040;SDS011;33815;48.386;11.738;2023-07-31T03:53:49;6.30;;;2.30;;
48040;SDS011;33815;48.386;11.738;2023-07-31T03:56:14;3.22;;;2.50;;
48040;SDS011;33815;48.386;11.738;2023-07-31T03:58:40;4.20;;;2.10;;
48040;SDS011;33815;48.386;11.738;2023-07-31T04:01:05;4.30;;;2.53;;
48040;SDS011;33815;48.386;11.738;2023-07-31T04:03:30;3.72;;;3.42;;
48040;SDS011;33815;48.386;11.738;2023-07-31T04:05:56;6.82;;;3.97;;
48040;SDS011;33815;48.386;11.738;2023-07-31T04:08:21;4.03;;;2.90;;
48040;SDS011;33815;48.386;11.738;2023-07-31T04:10:47;7.57;;;2.78;;
48040;SDS011;33815;48.386;11.738;2023-07-31T04:13:13;2.42;;;2.22;;
48040;SDS011;33815;48.386;11.738;2023-07-31T04:15:38;5.82;;;2.38;;
48040;SDS011;33815;48.386;11.738;2023-07-31T04:18:04;2.70;;;2.20;;
48040;SDS011;33815;48.386;11.738;2023-07-31T04:20:29;2.60;;;2.28;;
48040;SDS011;33815;48.386;11.738;2023-07-31T04:22:55;6.38;;;1.98;;
48040;SDS011;33815;48.386;11.738;2023-07-31T04:25:20;4.00;;;2.40;;
48040;SDS011;33815;48.386;11.738;2023-07-31T04:27:45;5.63;;;2.33;;
48040;SDS011;33815;48.386;11.738;2023-07-31T04:30:10;2.80;;;2.50;;
48040;SDS011;33815;48.386;11.738;2023-07-31T04:32:36;3.60;;;2.83;;
48040;SDS011;33815;48.386;11.738;2023-07-31T04:35:01;3.92;;;2.10;;
48040;SDS011;33815;48.386;11.738;2023-07-31T04:37:27;5.22;;;2.35;;
48040;SDS011;33815;48.386;11.738;2023-07-31T04:39:52;4.93;;;2.20;;
48040;SDS011;33815;48.386;11.738;2023-07-31T04:42:18;4.70;;;2.33;;
48040;SDS011;33815;48.386;11.738;2023-07-31T04:44:43;10.57;;;2.80;;
48040;SDS011;33815;48.386;11.738;2023-07-31T04:47:08;5.47;;;2.88;;
48040;SDS011;33815;48.386;11.738;2023-07-31T04:49:34;2.93;;;2.37;;
48040;SDS011;33815;48.386;11.738;2023-07-31T04:51:59;3.17;;;2.47;;
48040;SDS011;33815;48.386;11.738;2023-07-31T04:54:24;4.97;;;2.60;;
48040;SDS011;33815;48.386;11.738;2023-07-31T04:56:49;7.17;;;3.20;;
48040;SDS011;33815;48.386;11.738;2023-07-31T04:59:15;6.22;;;2.60;;
48040;SDS011;33815;48.386;11.738;2023-07-31T05:01:40;3.80;;;2.33;;
48040;SDS011;33815;48.386;11.738;2023-07-31T05:04:05;5.13;;;2.28;;
48040;SDS011;33815;48.386;11.738;2023-07-31T05:06:31;12.30;;;2.60;;
48040;SDS011;33815;48.386;11.738;2023-07-31T05:08:56;3.72;;;2.17;;
48040;SDS011;33815;48.386;11.738;2023-07-31T05:11:21;2.30;;;2.10;;
48040;SDS011;33815;48.386;11.738;2023-07-31T05:13:46;4.67;;;2.30;;
48040;SDS011;33815;48.386;11.738;2023-07-31T05:16:12;4.53;;;2.33;;
48040;SDS011;33815;48.386;11.738;2023-07-31T05:18:37;6.13;;;2.63;;
48040;SDS011;33815;48.386;11.738;2023-07-31T05:21:02;5.20;;;2.80;;
48040;SDS011;33815;48.386;11.738;2023-07-31T05:23:27;4.93;;;2.70;;
48040;SDS011;33815;48.386;11.738;2023-07-31T05:25:53;5.85;;;2.55;;
48040;SDS011;33815;48.386;11.738;2023-07-31T05:28:18;5.45;;;3.03;;
48040;SDS011;33815;48.386;11.738;2023-07-31T05:30:46;3.67;;;2.45;;
48040;SDS011;33815;48.386;11.738;2023-07-31T05:33:12;4.50;;;2.83;;
48040;SDS011;33815;48.386;11.738;2023-07-31T05:35:37;7.63;;;2.70;;
48040;SDS011;33815;48.386;11.738;2023-07-31T05:38:03;6.88;;;2.70;;
48040;SDS011;33815;48.386;11.738;2023-07-31T05:40:28;4.18;;;2.75;;
48040;SDS011;33815;48.386;11.738;2023-07-31T05:42:57;3.40;;;2.30;;
48040;SDS011;33815;48.386;11.738;2023-07-31T05:45:22;6.43;;;2.50;;
48040;SDS011;33815;48.386;11.738;2023-07-31T05:47:48;8.30;;;1.77;;
48040;SDS011;33815;48.386;11.738;2023-07-31T05:50:13;4.53;;;1.90;;
48040;SDS011;33815;48.386;11.738;2023-07-31T05:52:39;2.65;;;2.17;;
48040;SDS011;33815;48.386;11.738;2023-07-31T05:55:04;6.67;;;1.97;;
48040;SDS011;33815;48.386;11.738;2023-07-31T05:57:30;2.92;;;1.83;;
48040;SDS011;33815;48.386;11.738;2023-07-31T05:59:55;4.50;;;2.30;;
48040;SDS011;33815;48.386;11.738;2023-07-31T06:02:20;4.55;;;2.58;;
48040;SDS011;33815;48.386;11.738;2023-07-31T06:04:45;3.07;;;1.90;;
48040;SDS011;33815;48.386;11.738;2023-07-31T06:07:11;3.00;;;1.83;;
48040;SDS011;33815;48.386;11.738;2023-07-31T06:09:36;4.28;;;1.98;;
48040;SDS011;33815;48.386;11.738;2023-07-31T06:12:02;3.63;;;2.00;;
48040;SDS011;33815;48.386;11.738;2023-07-31T06:14:27;2.20;;;1.65;;
48040;SDS011;33815;48.386;11.738;2023-07-31T06:16:52;4.87;;;1.87;;
48040;SDS011;33815;48.386;11.738;2023-07-31T06:19:18;3.75;;;1.80;;
48040;SDS011;33815;48.386;11.738;2023-07-31T06:21:43;2.17;;;1.60;;
48040;SDS011;33815;48.386;11.738;2023-07-31T06:24:09;3.67;;;2.20;;
48040;SDS011;33815;48.386;11.738;2023-07-31T06:26:34;5.32;;;1.85;;
48040;SDS011;33815;48.386;11.738;2023-07-31T06:28:59;4.85;;;1.75;;
48040;SDS011;33815;48.386;11.738;2023-07-31T06:31:25;4.93;;;2.10;;
48040;SDS011;33815;48.386;11.738;2023-07-31T06:33:51;2.80;;;1.73;;
48040;SDS011;33815;48.386;11.738;2023-07-31T06:36:16;2.05;;;1.60;;
48040;SDS011;33815;48.386;11.738;2023-07-31T06:38:42;1.63;;;1.33;;
48040;SDS011;33815;48.386;11.738;2023-07-31T06:41:07;5.67;;;2.10;;
48040;SDS011;33815;48.386;11.738;2023-07-31T06:43:32;2.93;;;1.93;;
48040;SDS011;33815;48.386;11.738;2023-07-31T06:45:59;1.70;;;1.23;;
48040;SDS011;33815;48.386;11.738;2023-07-31T06:48:29;2.70;;;1.73;;
48040;SDS011;33815;48.386;11.738;2023-07-31T06:50:55;5.32;;;2.30;;
48040;SDS011;33815;48.386;11.738;2023-07-31T06:53:20;2.67;;;1.43;;
48040;SDS011;33815;48.386;11.738;2023-07-31T06:55:45;3.33;;;1.63;;
48040;SDS011;33815;48.386;11.738;2023-07-31T06:58:11;3.75;;;2.05;;
48040;SDS011;33815;48.386;11.738;2023-07-31T07:00:36;2.43;;;1.80;;
48040;SDS011;33815;48.386;11.738;2023-07-31T07:03:01;3.30;;;1.70;;
48040;SDS011;33815;48.386;11.738;2023-07-31T07:05:27;1.98;;;1.63;;
48040;SDS011;33815;48.386;11.738;2023-07-31T07:07:52;2.30;;;1.60;;
48040;SDS011;33815;48.386;11.738;2023-07-31T07:10:17;2.13;;;1.63;;
48040;SDS011;33815;48.386;11.738;2023-07-31T07:12:43;1.88;;;1.42;;
48040;SDS011;33815;48.386;11.738;2023-07-31T07:15:08;2.13;;;1.30;;
48040;SDS011;33815;48.386;11.738;2023-07-31T07:17:34;2.30;;;1.27;;
48040;SDS011;33815;48.386;11.738;2023-07-31T07:19:59;4.90;;;1.60;;
48040;SDS011;33815;48.386;11.738;2023-07-31T07:22:25;2.25;;;1.60;;
48040;SDS011;33815;48.386;11.738;2023-07-31T07:24:51;4.80;;;1.58;;
48040;SDS011;33815;48.386;11.738;2023-07-31T07:27:17;3.22;;;2.28;;
48040;SDS011;33815;48.386;11.738;2023-07-31T07:29:42;1.70;;;1.30;;
48040;SDS011;33815;48.386;11.738;2023-07-31T07:32:08;3.17;;;1.30;;
48040;SDS011;33815;48.386;11.738;2023-07-31T07:34:33;3.03;;;1.63;;
48040;SDS011;33815;48.386;11.738;2023-07-31T07:36:58;2.38;;;1.40;;
48040;SDS011;33815;48.386;11.738;2023-07-31T07:39:23;5.00;;;1.80;;
48040;SDS011;33815;48.386;11.738;2023-07-31T07:41:49;4.45;;;1.73;;
48040;SDS011;33815;48.386;11.738;2023-07-31T07:44:15;1.30;;;1.17;;
48040;SDS011;33815;48.386;11.738;2023-07-31T07:46:40;3.20;;;1.53;;
48040;SDS011;33815;48.386;11.738;2023-07-31T07:49:05;7.13;;;1.50;;
48040;SDS011;33815;48.386;11.738;2023-07-31T07:51:31;1.10;;;1.10;;
48040;SDS011;33815;48.386;11.738;2023-07-31T07:53:57;2.15;;;1.35;;
48040;SDS011;33815;48.386;11.738;2023-07-31T07:56:23;2.53;;;1.27;;
48040;SDS011;33815;48.386;11.738;2023-07-31T07:58:49;2.25;;;1.52;;
48040;SDS011;33815;48.386;11.738;2023-07-31T08:01:15;3.05;;;1.70;;
48040;SDS011;33815;48.386;11.738;2023-07-31T08:03:40;1.30;;;1.20;;
48040;SDS011;33815;48.386;11.738;2023-07-31T08:06:06;1.53;;;1.30;;
48040;SDS011;33815;48.386;11.738;2023-07-31T08:08:33;1.60;;;1.05;;
48040;SDS011;33815;48.386;11.738;2023-07-31T08:10:58;4.50;;;1.63;;
48040;SDS011;33815;48.386;11.738;2023-07-31T08:13:23;4.23;;;1.30;;
48040;SDS011;33815;48.386;11.738;2023-07-31T08:15:48;2.47;;;1.33;;
48040;SDS011;33815;48.386;11.738;2023-07-31T08:18:14;2.88;;;1.17;;
48040;SDS011;33815;48.386;11.738;2023-07-31T08:20:39;1.77;;;1.20;;
48040;SDS011;33815;48.386;11.738;2023-07-31T08:23:04;2.60;;;1.23;;
48040;SDS011;33815;48.386;11.738;2023-07-31T08:25:30;2.10;;;1.02;;
48040;SDS011;33815;48.386;11.738;2023-07-31T08:27:55;5.10;;;1.67;;
48040;SDS011;33815;48.386;11.738;2023-07-31T08:30:20;7.32;;;1.30;;
48040;SDS011;33815;48.386;11.738;2023-07-31T08:32:46;2.08;;;1.08;;
48040;SDS011;33815;48.386;11.738;2023-07-31T08:35:12;3.97;;;1.08;;
48040;SDS011;33815;48.386;11.738;2023-07-31T08:37:37;2.15;;;1.17;;
48040;SDS011;33815;48.386;11.738;2023-07-31T08:40:03;2.75;;;1.08;;
48040;SDS011;33815;48.386;11.738;2023-07-31T08:42:30;2.93;;;1.00;;
48040;SDS011;33815;48.386;11.738;2023-07-31T08:44:55;3.95;;;1.60;;
48040;SDS011;33815;48.386;11.738;2023-07-31T08:47:21;5.32;;;1.50;;
48040;SDS011;33815;48.386;11.738;2023-07-31T08:49:47;1.70;;;1.15;;
48040;SDS011;33815;48.386;11.738;2023-07-31T08:52:13;3.63;;;1.25;;
48040;SDS011;33815;48.386;11.738;2023-07-31T08:54:38;1.60;;;1.17;;
48040;SDS011;33815;48.386;11.738;2023-07-31T08:57:05;3.53;;;1.55;;
48040;SDS011;33815;48.386;11.738;2023-07-31T08:59:31;3.13;;;1.27;;
48040;SDS011;33815;48.386;11.738;2023-07-31T09:02:03;4.50;;;1.20;;
48040;SDS011;33815;48.386;11.738;2023-07-31T09:04:32;1.40;;;1.08;;
48040;SDS011;33815;48.386;11.738;2023-07-31T09:06:59;3.67;;;1.40;;
48040;SDS011;33815;48.386;11.738;2023-07-31T09:09:28;2.60;;;1.55;;
48040;SDS011;33815;48.386;11.738;2023-07-31T09:11:53;1.73;;;1.17;;
48040;SDS011;33815;48.386;11.738;2023-07-31T09:14:20;2.78;;;1.48;;
48040;SDS011;33815;48.386;11.738;2023-07-31T09:16:53;3.05;;;1.05;;
48040;SDS011;33815;48.386;11.738;2023-07-31T09:19:42;5.28;;;1.20;;
48040;SDS011;33815;48.386;11.738;2023-07-31T09:22:07;4.70;;;1.27;;
48040;SDS011;33815;48.386;11.738;2023-07-31T09:24:33;2.27;;;1.13;;
48040;SDS011;33815;48.386;11.738;2023-07-31T09:27:00;2.35;;;1.20;;
48040;SDS011;33815;48.386;11.738;2023-07-31T09:29:26;4.13;;;1.50;;
48040;SDS011;33815;48.386;11.738;2023-07-31T09:31:53;2.90;;;1.23;;
48040;SDS011;33815;48.386;11.738;2023-07-31T09:34:19;2.45;;;1.23;;
48040;SDS011;33815;48.386;11.738;2023-07-31T09:36:46;1.63;;;1.17;;
48040;SDS011;33815;48.386;11.738;2023-07-31T09:39:13;2.10;;;1.17;;
48040;SDS011;33815;48.386;11.738;2023-07-31T09:41:42;1.98;;;1.48;;
48040;SDS011;33815;48.386;11.738;2023-07-31T09:44:08;3.47;;;1.50;;
48040;SDS011;33815;48.386;11.738;2023-07-31T09:46:37;2.70;;;1.13;;
48040;SDS011;33815;48.386;11.738;2023-07-31T09:49:12;3.58;;;1.13;;
48040;SDS011;33815;48.386;11.738;2023-07-31T09:51:40;2.90;;;1.38;;
48040;SDS011;33815;48.386;11.738;2023-07-31T09:54:10;4.38;;;2.05;;
48040;SDS011;33815;48.386;11.738;2023-07-31T09:56:41;2.08;;;1.23;;
48040;SDS011;33815;48.386;11.738;2023-07-31T09:59:11;3.40;;;1.20;;
48040;SDS011;33815;48.386;11.738;2023-07-31T10:01:38;2.00;;;1.27;;
48040;SDS011;33815;48.386;11.738;2023-07-31T10:04:05;4.18;;;1.40;;
48040;SDS011;33815;48.386;11.738;2023-07-31T10:06:32;1.90;;;0.95;;
48040;SDS011;33815;48.386;11.738;2023-07-31T10:09:00;2.30;;;1.35;;
48040;SDS011;33815;48.386;11.738;2023-07-31T10:11:28;2.70;;;1.10;;
48040;SDS011;33815;48.386;11.738;2023-07-31T10:13:55;1.77;;;1.17;;
48040;SDS011;33815;48.386;11.738;2023-07-31T10:16:21;2.05;;;1.10;;
48040;SDS011;33815;48.386;11.738;2023-07-31T10:18:47;2.70;;;1.20;;
48040;SDS011;33815;48.386;11.738;2023-07-31T10:21:13;5.95;;;2.03;;
48040;SDS011;33815;48.386;11.738;2023-07-31T10:23:39;4.50;;;1.50;;
48040;SDS011;33815;48.386;11.738;2023-07-31T10:26:05;2.60;;;1.30;;
48040;SDS011;33815;48.386;11.738;2023-07-31T10:28:32;4.97;;;1.10;;
48040;SDS011;33815;48.386;11.738;2023-07-31T10:30:59;4.18;;;1.55;;
48040;SDS011;33815;48.386;11.738;2023-07-31T10:33:26;4.60;;;1.30;;
48040;SDS011;33815;48.386;11.738;2023-07-31T10:36:11;4.45;;;1.75;;
48040;SDS011;33815;48.386;11.738;2023-07-31T10:38:37;3.00;;;1.55;;
48040;SDS011;33815;48.386;11.738;2023-07-31T10:41:09;2.40;;;1.33;;
48040;SDS011;33815;48.386;11.738;2023-07-31T10:43:35;1.63;;;1.20;;
48040;SDS011;33815;48.386;11.738;2023-07-31T10:46:05;3.05;;;1.27;;
48040;SDS011;33815;48.386;11.738;2023-07-31T10:48:33;7.18;;;1.70;;
48040;SDS011;33815;48.386;11.738;2023-07-31T10:50:58;1.67;;;1.58;;
48040;SDS011;33815;48.386;11.738;2023-07-31T10:53:31;6.65;;;1.13;;
48040;SDS011;33815;48.386;11.738;2023-07-31T10:55:58;5.25;;;1.70;;
48040;SDS011;33815;48.386;11.738;2023-07-31T10:58:27;2.00;;;1.15;;
48040;SDS011;33815;48.386;11.738;2023-07-31T11:00:56;2.22;;;1.20;;
48040;SDS011;33815;48.386;11.738;2023-07-31T11:03:26;3.03;;;1.33;;
48040;SDS011;33815;48.386;11.738;2023-07-31T11:06:05;1.63;;;1.20;;
48040;SDS011;33815;48.386;11.738;2023-07-31T11:08:30;2.72;;;1.20;;
48040;SDS011;33815;48.386;11.738;2023-07-31T11:13:29;3.28;;;1.20;;
48040;SDS011;33815;48.386;11.738;2023-07-31T11:15:55;1.95;;;1.30;;
48040;SDS011;33815;48.386;11.738;2023-07-31T11:18:20;4.63;;;1.20;;
48040;SDS011;33815;48.386;11.738;2023-07-31T11:20:45;1.92;;;1.00;;
48040;SDS011;33815;48.386;11.738;2023-07-31T11:23:11;3.10;;;1.35;;
48040;SDS011;33815;48.386;11.738;2023-07-31T11:25:39;3.17;;;1.30;;
48040;SDS011;33815;48.386;11.738;2023-07-31T11:28:09;1.98;;;1.05;;
48040;SDS011;33815;48.386;11.738;2023-07-31T11:30:36;1.30;;;1.20;;
48040;SDS011;33815;48.386;11.738;2023-07-31T11:33:02;6.13;;;1.75;;
48040;SDS011;33815;48.386;11.738;2023-07-31T11:35:32;2.22;;;1.10;;
48040;SDS011;33815;48.386;11.738;2023-07-31T11:37:58;3.22;;;1.52;;
48040;SDS011;33815;48.386;11.738;2023-07-31T11:40:23;2.55;;;1.55;;
48040;SDS011;33815;48.386;11.738;2023-07-31T11:42:54;1.38;;;1.20;;
48040;SDS011;33815;48.386;11.738;2023-07-31T11:45:26;2.72;;;1.33;;
48040;SDS011;33815;48.386;11.738;2023-07-31T11:47:53;3.28;;;1.30;;
48040;SDS011;33815;48.386;11.738;2023-07-31T11:50:19;2.53;;;1.50;;
48040;SDS011;33815;48.386;11.738;2023-07-31T11:52:45;1.15;;;0.95;;
48040;SDS011;33815;48.386;11.738;2023-07-31T11:55:13;1.42;;;1.27;;
48040;SDS011;33815;48.386;11.738;2023-07-31T11:57:40;3.97;;;1.17;;
48040;SDS011;33815;48.386;11.738;2023-07-31T12:00:08;1.33;;;1.20;;
48040;SDS011;33815;48.386;11.738;2023-07-31T12:02:36;3.08;;;1.35;;
48040;SDS011;33815;48.386;11.738;2023-07-31T12:05:02;5.20;;;1.17;;
48040;SDS011;33815;48.386;11.738;2023-07-31T12:07:27;1.83;;;1.20;;
48040;SDS011;33815;48.386;11.738;2023-07-31T12:10:08;5.75;;;1.20;;
48040;SDS011;33815;48.386;11.738;2023-07-31T12:12:33;7.05;;;1.33;;
48040;SDS011;33815;48.386;11.738;2023-07-31T12:14:59;5.27;;;1.60;;
48040;SDS011;33815;48.386;11.738;2023-07-31T12:17:24;2.37;;;1.40;;
48040;SDS011;33815;48.386;11.738;2023-07-31T12:19:50;1.70;;;1.00;;
48040;SDS011;33815;48.386;11.738;2023-07-31T12:22:15;1.98;;;1.33;;
48040;SDS011;33815;48.386;11.738;2023-07-31T12:24:42;2.28;;;1.20;;
48040;SDS011;33815;48.386;11.738;2023-07-31T12:27:12;3.17;;;1.38;;
48040;SDS011;33815;48.386;11.738;2023-07-31T12:29:41;2.83;;;1.13;;
48040;SDS011;33815;48.386;11.738;2023-07-31T12:32:18;3.65;;;1.63;;
48040;SDS011;33815;48.386;11.738;2023-07-31T12:34:55;1.08;;;0.93;;
48040;SDS011;33815;48.386;11.738;2023-07-31T12:37:24;4.45;;;1.58;;
48040;SDS011;33815;48.386;11.738;2023-07-31T12:39:49;2.73;;;0.90;;
48040;SDS011;33815;48.386;11.738;2023-07-31T12:42:17;2.33;;;1.20;;
48040;SDS011;33815;48.386;11.738;2023-07-31T12:44:42;2.97;;;1.50;;
48040;SDS011;33815;48.386;11.738;2023-07-31T12:47:07;1.80;;;1.40;;
48040;SDS011;33815;48.386;11.738;2023-07-31T12:49:33;4.87;;;1.17;;
48040;SDS011;33815;48.386;11.738;2023-07-31T12:51:58;1.85;;;1.10;;
48040;SDS011;33815;48.386;11.738;2023-07-31T12:54:23;3.33;;;1.50;;
48040;SDS011;33815;48.386;11.738;2023-07-31T12:56:48;1.30;;;1.20;;
48040;SDS011;33815;48.386;11.738;2023-07-31T12:59:14;1.80;;;1.08;;
48040;SDS011;33815;48.386;11.738;2023-07-31T13:01:39;4.50;;;1.30;;
48040;SDS011;33815;48.386;11.738;2023-07-31T13:04:04;3.10;;;1.07;;
48040;SDS011;33815;48.386;11.738;2023-07-31T13:06:29;3.17;;;1.13;;
48040;SDS011;33815;48.386;11.738;2023-07-31T13:08:55;2.67;;;1.00;;
48040;SDS011;33815;48.386;11.738;2023-07-31T13:11:20;2.73;;;1.50;;
48040;SDS011;33815;48.386;11.738;2023-07-31T13:13:45;1.77;;;1.17;;
48040;SDS011;33815;48.386;11.738;2023-07-31T13:16:10;3.10;;;1.60;;
48040;SDS011;33815;48.386;11.738;2023-07-31T13:18:36;1.57;;;1.33;;
48040;SDS011;33815;48.386;11.738;2023-07-31T13:21:01;2.63;;;1.10;;
48040;SDS011;33815;48.386;11.738;2023-07-31T13:23:26;1.40;;;1.07;;
48040;SDS011;33815;48.386;11.738;2023-07-31T13:25:52;1.73;;;1.17;;
48040;SDS011;33815;48.386;11.738;2023-07-31T13:28:17;3.73;;;1.20;;
48040;SDS011;33815;48.386;11.738;2023-07-31T13:30:42;1.67;;;1.10;;
48040;SDS011;33815;48.386;11.738;2023-07-31T13:33:07;3.50;;;1.07;;
48040;SDS011;33815;48.386;11.738;2023-07-31T13:35:33;2.35;;;1.15;;
48040;SDS011;33815;48.386;11.738;2023-07-31T13:37:58;2.53;;;1.37;;
48040;SDS011;33815;48.386;11.738;2023-07-31T13:40:23;3.77;;;1.20;;
48040;SDS011;33815;48.386;11.738;2023-07-31T13:42:48;1.33;;;1.10;;
48040;SDS011;33815;48.386;11.738;2023-07-31T13:45:14;4.13;;;1.13;;
48040;SDS011;33815;48.386;11.738;2023-07-31T13:47:39;3.20;;;1.60;;
48040;SDS011;33815;48.386;11.738;2023-07-31T13:50:05;6.15;;;1.40;;
48040;SDS011;33815;48.386;11.738;2023-07-31T13:52:30;2.28;;;1.40;;
48040;SDS011;33815;48.386;11.738;2023-07-31T13:54:56;3.65;;;1.25;;
48040;SDS011;33815;48.386;11.738;2023-07-31T13:57:21;3.97;;;1.43;;
48040;SDS011;33815;48.386;11.738;2023-07-31T13:59:46;2.40;;;1.55;;
48040;SDS011;33815;48.386;11.738;2023-07-31T14:02:12;3.67;;;1.47;;
48040;SDS011;33815;48.386;11.738;2023-07-31T14:04:38;3.33;;;1.25;;
48040;SDS011;33815;48.386;11.738;2023-07-31T14:07:04;1.67;;;1.23;;
48040;SDS011;33815;48.386;11.738;2023-07-31T14:09:29;3.22;;;1.23;;
48040;SDS011;33815;48.386;11.738;2023-07-31T14:11:54;3.33;;;1.50;;
48040;SDS011;33815;48.386;11.738;2023-07-31T14:14:20;1.58;;;1.20;;
48040;SDS011;33815;48.386;11.738;2023-07-31T14:16:45;3.10;;;1.40;;
48040;SDS011;33815;48.386;11.738;2023-07-31T14:19:10;3.27;;;1.30;;
48040;SDS011;33815;48.386;11.738;2023-07-31T14:21:35;3.83;;;1.50;;
48040;SDS011;33815;48.386;11.738;2023-07-31T14:24:01;3.27;;;1.53;;
48040;SDS011;33815;48.386;11.738;2023-07-31T14:26:26;7.30;;;1.80;;
48040;SDS011;33815;48.386;11.738;2023-07-31T14:28:51;1.27;;;1.15;;
48040;SDS011;33815;48.386;11.738;2023-07-31T14:31:17;2.03;;;1.33;;
48040;SDS011;33815;48.386;11.738;2023-07-31T14:33:42;2.55;;;1.10;;
48040;SDS011;33815;48.386;11.738;2023-07-31T14:36:07;1.95;;;1.77;;